sensor_id;sensor_type;location;lat;lon;timestamp;pressure;altitude;pressure_sealevel;temperature;humidity
50011;BME280;35899;50.352;19.390;2023-06-04T00:00:34;98271.96;;;9.05;52.04
50011;BME280;35899;50.352;19.390;2023-06-04T00:03:20;98274.42;;;9.04;52.04
50011;BME280;35899;50.352;19.390;2023-06-04T00:05:47;98272.04;;;9.03;52.11
50011;BME280;35899;50.352;19.390;2023-06-04T00:08:14;98269.22;;;9.05;52.57
50011;BME280;35899;50.352;19.390;2023-06-04T00:10:40;98264.23;;;9.07;52.58
50011;BME280;35899;50.352;19.390;2023-06-04T00:13:06;98257.48;;;9.07;52.65
50011;BME280;35899;50.352;19.390;2023-06-04T00:15:33;98257.47;;;9.08;52.54
50011;BME280;35899;50.352;19.390;2023-06-04T00:17:59;98256.36;;;9.03;52.89
50011;BME280;35899;50.352;19.390;2023-06-04T00:20:26;98252.92;;;8.96;52.74
50011;BME280;35899;50.352;19.390;2023-06-04T00:22:52;98250.35;;;8.93;52.82
50011;BME280;35899;50.352;19.390;2023-06-04T00:25:19;98244.57;;;8.95;52.84
50011;BME280;35899;50.352;19.390;2023-06-04T00:27:46;98240.13;;;8.94;53.10
50011;BME280;35899;50.352;19.390;2023-06-04T00:30:12;98243.02;;;8.95;53.21
50011;BME280;35899;50.352;19.390;2023-06-04T00:32:39;98240.19;;;8.95;53.23
50011;BME280;35899;50.352;19.390;2023-06-04T00:35:05;98236.24;;;8.95;53.31
50011;BME280;35899;50.352;19.390;2023-06-04T00:37:32;98240.63;;;8.94;53.36
50011;BME280;35899;50.352;19.390;2023-06-04T00:39:59;98238.70;;;8.92;53.48
50011;BME280;35899;50.352;19.390;2023-06-04T00:42:25;98238.06;;;8.88;53.41
50011;BME280;35899;50.352;19.390;2023-06-04T00:44:52;98236.99;;;8.85;53.58
50011;BME280;35899;50.352;19.390;2023-06-04T00:47:20;98235.88;;;8.84;53.70
50011;BME280;35899;50.352;19.390;2023-06-04T00:49:47;98235.27;;;8.85;53.93
50011;BME280;35899;50.352;19.390;2023-06-04T00:52:14;98234.55;;;8.86;53.89
50011;BME280;35899;50.352;19.390;2023-06-04T00:54:40;98232.55;;;8.85;54.03
50011;BME280;35899;50.352;19.390;2023-06-04T00:57:07;98235.16;;;8.84;54.06
50011;BME280;35899;50.352;19.390;2023-06-04T00:59:35;98235.54;;;8.84;54.26
50011;BME280;35899;50.352;19.390;2023-06-04T01:06:58;98225.88;;;8.87;54.13
50011;BME280;35899;50.352;19.390;2023-06-04T01:09:27;98224.54;;;8.86;54.22
50011;BME280;35899;50.352;19.390;2023-06-04T01:11:53;98223.27;;;8.84;54.26
50011;BME280;35899;50.352;19.390;2023-06-04T01:14:20;98226.63;;;8.79;54.13
50011;BME280;35899;50.352;19.390;2023-06-04T01:16:52;98224.34;;;8.81;54.09
50011;BME280;35899;50.352;19.390;2023-06-04T01:21:50;98224.42;;;8.82;54.21
50011;BME280;35899;50.352;19.390;2023-06-04T01:24:20;98225.33;;;8.82;54.38
50011;BME280;35899;50.352;19.390;2023-06-04T01:26:47;98221.98;;;8.79;54.57
50011;BME280;35899;50.352;19.390;2023-06-04T01:29:14;98221.72;;;8.75;54.60
50011;BME280;35899;50.352;19.390;2023-06-04T01:31:41;98223.42;;;8.69;54.59
50011;BME280;35899;50.352;19.390;2023-06-04T01:34:07;98223.85;;;8.65;54.77
50011;BME280;35899;50.352;19.390;2023-06-04T01:36:35;98221.73;;;8.60;54.84
50011;BME280;35899;50.352;19.390;2023-06-04T01:39:02;98220.68;;;8.54;55.11
50011;BME280;35899;50.352;19.390;2023-06-04T01:41:28;98215.45;;;8.49;55.28
50011;BME280;35899;50.352;19.390;2023-06-04T01:43:57;98216.95;;;8.44;55.56
50011;BME280;35899;50.352;19.390;2023-06-04T01:46:24;98219.19;;;8.40;55.73
50011;BME280;35899;50.352;19.390;2023-06-04T01:48:50;98219.31;;;8.38;55.93
50011;BME280;35899;50.352;19.390;2023-06-04T01:51:17;98219.38;;;8.37;55.95
50011;BME280;35899;50.352;19.390;2023-06-04T01:53:43;98214.30;;;8.35;56.22
50011;BME280;35899;50.352;19.390;2023-06-04T01:56:10;98209.25;;;8.33;56.36
50011;BME280;35899;50.352;19.390;2023-06-04T01:58:37;98214.42;;;8.30;56.36
50011;BME280;35899;50.352;19.390;2023-06-04T02:01:04;98213.67;;;8.28;56.47
50011;BME280;35899;50.352;19.390;2023-06-04T02:03:31;98215.75;;;8.28;56.38
50011;BME280;35899;50.352;19.390;2023-06-04T02:05:57;98212.20;;;8.27;56.37
50011;BME280;35899;50.352;19.390;2023-06-04T02:08:24;98212.96;;;8.26;56.42
50011;BME280;35899;50.352;19.390;2023-06-04T02:10:51;98214.61;;;8.23;56.27
50011;BME280;35899;50.352;19.390;2023-06-04T02:13:18;98217.14;;;8.21;56.41
50011;BME280;35899;50.352;19.390;2023-06-04T02:15:44;98218.14;;;8.19;56.54
50011;BME280;35899;50.352;19.390;2023-06-04T02:18:12;98220.64;;;8.17;56.80
50011;BME280;35899;50.352;19.390;2023-06-04T02:20:40;98220.25;;;8.15;56.96
50011;BME280;35899;50.352;19.390;2023-06-04T02:23:06;98216.40;;;8.13;57.08
50011;BME280;35899;50.352;19.390;2023-06-04T02:25:33;98215.15;;;8.14;57.10
50011;BME280;35899;50.352;19.390;2023-06-04T02:28:02;98219.20;;;8.16;57.08
50011;BME280;35899;50.352;19.390;2023-06-04T02:30:29;98220.16;;;8.16;57.11
50011;BME280;35899;50.352;19.390;2023-06-04T02:32:56;98218.23;;;8.17;57.03
50011;BME280;35899;50.352;19.390;2023-06-04T02:35:22;98217.63;;;8.16;56.96
50011;BME280;35899;50.352;19.390;2023-06-04T02:37:49;98212.75;;;8.16;57.09
50011;BME280;35899;50.352;19.390;2023-06-04T02:40:16;98212.98;;;8.19;57.41
50011;BME280;35899;50.352;19.390;2023-06-04T02:42:43;98217.39;;;8.17;57.39
50011;BME280;35899;50.352;19.390;2023-06-04T02:45:09;98216.10;;;8.12;57.30
50011;BME280;35899;50.352;19.390;2023-06-04T02:47:37;98215.68;;;8.10;57.38
50011;BME280;35899;50.352;19.390;2023-06-04T02:50:04;98218.80;;;8.10;57.46
50011;BME280;35899;50.352;19.390;2023-06-04T02:52:31;98217.11;;;8.13;57.59
50011;BME280;35899;50.352;19.390;2023-06-04T02:54:57;98218.91;;;8.17;57.55
50011;BME280;35899;50.352;19.390;2023-06-04T02:57:24;98216.46;;;8.21;57.66
50011;BME280;35899;50.352;19.390;2023-06-04T02:59:50;98219.85;;;8.26;57.58
50011;BME280;35899;50.352;19.390;2023-06-04T03:02:17;98215.32;;;8.33;57.79
50011;BME280;35899;50.352;19.390;2023-06-04T03:04:43;98216.55;;;8.38;57.64
50011;BME280;35899;50.352;19.390;2023-06-04T03:07:10;98219.45;;;8.43;57.71
50011;BME280;35899;50.352;19.390;2023-06-04T03:09:36;98218.29;;;8.48;57.58
50011;BME280;35899;50.352;19.390;2023-06-04T03:12:04;98217.29;;;8.53;57.66
50011;BME280;35899;50.352;19.390;2023-06-04T03:14:31;98215.16;;;8.57;57.80
50011;BME280;35899;50.352;19.390;2023-06-04T03:17:02;98215.89;;;8.63;57.79
50011;BME280;35899;50.352;19.390;2023-06-04T03:19:29;98218.64;;;8.69;57.90
50011;BME280;35899;50.352;19.390;2023-06-04T03:21:55;98218.59;;;8.76;57.89
50011;BME280;35899;50.352;19.390;2023-06-04T03:24:22;98220.13;;;8.85;57.77
50011;BME280;35899;50.352;19.390;2023-06-04T03:26:48;98219.05;;;8.94;57.71
50011;BME280;35899;50.352;19.390;2023-06-04T03:29:15;98222.45;;;9.04;57.75
50011;BME280;35899;50.352;19.390;2023-06-04T03:31:43;98217.40;;;9.13;57.66
50011;BME280;35899;50.352;19.390;2023-06-04T03:34:10;98217.28;;;9.21;57.94
50011;BME280;35899;50.352;19.390;2023-06-04T03:36:36;98217.25;;;9.30;57.56
50011;BME280;35899;50.352;19.390;2023-06-04T03:39:03;98217.27;;;9.39;57.35
50011;BME280;35899;50.352;19.390;2023-06-04T03:41:30;98213.28;;;9.48;57.57
50011;BME280;35899;50.352;19.390;2023-06-04T03:43:57;98215.50;;;9.56;57.24
50011;BME280;35899;50.352;19.390;2023-06-04T03:46:24;98217.58;;;9.65;57.31
50011;BME280;35899;50.352;19.390;2023-06-04T03:48:50;98221.30;;;9.77;57.20
50011;BME280;35899;50.352;19.390;2023-06-04T03:51:17;98226.48;;;9.91;57.42
50011;BME280;35899;50.352;19.390;2023-06-04T03:53:44;98230.81;;;10.05;57.21
50011;BME280;35899;50.352;19.390;2023-06-04T03:56:11;98225.01;;;10.18;57.02
50011;BME280;35899;50.352;19.390;2023-06-04T03:58:38;98231.67;;;10.30;57.14
50011;BME280;35899;50.352;19.390;2023-06-04T04:01:06;98230.91;;;10.39;56.59
50011;BME280;35899;50.352;19.390;2023-06-04T04:03:36;98231.05;;;10.48;56.95
50011;BME280;35899;50.352;19.390;2023-06-04T04:06:03;98229.80;;;10.59;56.93
50011;BME280;35899;50.352;19.390;2023-06-04T04:08:30;98231.19;;;10.72;56.66
50011;BME280;35899;50.352;19.390;2023-06-04T04:10:59;98233.37;;;10.79;56.34
50011;BME280;35899;50.352;19.390;2023-06-04T04:13:26;98228.70;;;10.84;56.28
50011;BME280;35899;50.352;19.390;2023-06-04T04:15:53;98228.23;;;10.93;56.03
50011;BME280;35899;50.352;19.390;2023-06-04T04:18:20;98229.27;;;10.99;55.92
50011;BME280;35899;50.352;19.390;2023-06-04T04:20:47;98229.31;;;11.03;56.07
50011;BME280;35899;50.352;19.390;2023-06-04T04:23:13;98226.69;;;11.09;55.97
50011;BME280;35899;50.352;19.390;2023-06-04T04:25:42;98225.85;;;11.18;56.42
50011;BME280;35899;50.352;19.390;2023-06-04T04:28:10;98232.02;;;11.27;56.10
50011;BME280;35899;50.352;19.390;2023-06-04T04:30:37;98231.89;;;11.37;55.76
50011;BME280;35899;50.352;19.390;2023-06-04T04:33:03;98233.71;;;11.46;56.02
50011;BME280;35899;50.352;19.390;2023-06-04T04:35:33;98225.77;;;11.53;56.02
50011;BME280;35899;50.352;19.390;2023-06-04T04:38:00;98222.45;;;11.65;56.22
50011;BME280;35899;50.352;19.390;2023-06-04T04:40:27;98227.73;;;11.74;56.09
50011;BME280;35899;50.352;19.390;2023-06-04T04:42:54;98224.46;;;11.84;56.17
50011;BME280;35899;50.352;19.390;2023-06-04T04:45:21;98223.73;;;11.95;56.14
50011;BME280;35899;50.352;19.390;2023-06-04T04:47:48;98224.48;;;12.04;56.17
50011;BME280;35899;50.352;19.390;2023-06-04T04:50:15;98223.48;;;12.13;56.10
50011;BME280;35899;50.352;19.390;2023-06-04T04:52:41;98222.92;;;12.23;56.12
50011;BME280;35899;50.352;19.390;2023-06-04T04:55:08;98224.16;;;12.35;56.23
50011;BME280;35899;50.352;19.390;2023-06-04T04:57:41;98226.06;;;12.44;56.15
50011;BME280;35899;50.352;19.390;2023-06-04T05:00:08;98228.28;;;12.57;56.17
50011;BME280;35899;50.352;19.390;2023-06-04T05:02:35;98234.14;;;12.72;56.10
50011;BME280;35899;50.352;19.390;2023-06-04T05:05:03;98232.32;;;12.87;55.90
50011;BME280;35899;50.352;19.390;2023-06-04T05:07:29;98239.39;;;12.99;55.71
50011;BME280;35899;50.352;19.390;2023-06-04T05:09:56;98238.84;;;13.11;55.26
50011;BME280;35899;50.352;19.390;2023-06-04T05:12:24;98236.95;;;13.22;54.94
50011;BME280;35899;50.352;19.390;2023-06-04T05:14:51;98237.69;;;13.31;54.74
50011;BME280;35899;50.352;19.390;2023-06-04T05:17:18;98239.06;;;13.43;54.44
50011;BME280;35899;50.352;19.390;2023-06-04T05:19:45;98242.45;;;13.55;54.31
50011;BME280;35899;50.352;19.390;2023-06-04T05:22:11;98241.67;;;13.65;54.24
50011;BME280;35899;50.352;19.390;2023-06-04T05:24:38;98239.32;;;13.76;53.89
50011;BME280;35899;50.352;19.390;2023-06-04T05:27:05;98241.94;;;13.87;53.95
50011;BME280;35899;50.352;19.390;2023-06-04T05:29:31;98241.30;;;13.99;54.04
50011;BME280;35899;50.352;19.390;2023-06-04T05:31:58;98238.67;;;14.10;53.41
50011;BME280;35899;50.352;19.390;2023-06-04T05:34:25;98241.42;;;14.17;53.05
50011;BME280;35899;50.352;19.390;2023-06-04T05:36:59;98245.38;;;14.22;52.46
50011;BME280;35899;50.352;19.390;2023-06-04T05:39:26;98240.65;;;14.25;52.07
50011;BME280;35899;50.352;19.390;2023-06-04T05:42:00;98237.51;;;14.29;52.08
50011;BME280;35899;50.352;19.390;2023-06-04T05:44:26;98234.24;;;14.37;51.82
50011;BME280;35899;50.352;19.390;2023-06-04T05:46:58;98235.27;;;14.46;51.57
50011;BME280;35899;50.352;19.390;2023-06-04T05:49:34;98234.41;;;14.51;51.03
50011;BME280;35899;50.352;19.390;2023-06-04T05:52:02;98235.91;;;14.58;51.24
50011;BME280;35899;50.352;19.390;2023-06-04T05:54:29;98241.84;;;14.69;51.18
50011;BME280;35899;50.352;19.390;2023-06-04T05:56:56;98239.66;;;14.78;50.97
50011;BME280;35899;50.352;19.390;2023-06-04T06:02:03;98242.17;;;15.05;50.86
50011;BME280;35899;50.352;19.390;2023-06-04T06:04:35;98242.73;;;15.19;50.67
50011;BME280;35899;50.352;19.390;2023-06-04T06:07:02;98240.42;;;15.34;50.56
50011;BME280;35899;50.352;19.390;2023-06-04T06:09:29;98239.85;;;15.49;49.94
50011;BME280;35899;50.352;19.390;2023-06-04T06:11:56;98241.50;;;15.60;49.54
50011;BME280;35899;50.352;19.390;2023-06-04T06:14:22;98240.89;;;15.72;49.10
50011;BME280;35899;50.352;19.390;2023-06-04T06:16:50;98243.76;;;15.85;48.87
50011;BME280;35899;50.352;19.390;2023-06-04T06:19:17;98249.13;;;15.98;48.45
50011;BME280;35899;50.352;19.390;2023-06-04T06:21:46;98247.94;;;16.12;48.05
50011;BME280;35899;50.352;19.390;2023-06-04T06:24:16;98250.66;;;16.30;48.38
50011;BME280;35899;50.352;19.390;2023-06-04T06:26:42;98246.49;;;16.48;48.17
50011;BME280;35899;50.352;19.390;2023-06-04T06:29:10;98248.02;;;16.60;47.10
50011;BME280;35899;50.352;19.390;2023-06-04T06:31:37;98248.02;;;16.68;46.36
50011;BME280;35899;50.352;19.390;2023-06-04T06:34:04;98248.47;;;16.74;45.87
50011;BME280;35899;50.352;19.390;2023-06-04T06:36:31;98250.40;;;16.82;45.39
50011;BME280;35899;50.352;19.390;2023-06-04T06:38:57;98249.43;;;16.89;45.11
50011;BME280;35899;50.352;19.390;2023-06-04T06:41:23;98248.88;;;16.97;44.81
50011;BME280;35899;50.352;19.390;2023-06-04T06:43:50;98246.36;;;17.05;44.95
50011;BME280;35899;50.352;19.390;2023-06-04T06:46:17;98250.77;;;17.16;44.78
50011;BME280;35899;50.352;19.390;2023-06-04T06:48:52;98253.09;;;17.28;44.58
50011;BME280;35899;50.352;19.390;2023-06-04T06:51:19;98256.89;;;17.39;44.25
50011;BME280;35899;50.352;19.390;2023-06-04T06:53:45;98256.77;;;17.43;43.18
50011;BME280;35899;50.352;19.390;2023-06-04T06:56:13;98256.58;;;17.46;42.99
50011;BME280;35899;50.352;19.390;2023-06-04T06:58:43;98259.98;;;17.48;42.30
50011;BME280;35899;50.352;19.390;2023-06-04T07:01:10;98262.38;;;17.52;42.13
50011;BME280;35899;50.352;19.390;2023-06-04T07:03:37;98261.89;;;17.55;41.78
50011;BME280;35899;50.352;19.390;2023-06-04T07:06:04;98263.64;;;17.59;41.61
50011;BME280;35899;50.352;19.390;2023-06-04T07:08:33;98264.67;;;17.65;41.39
50011;BME280;35899;50.352;19.390;2023-06-04T07:10:59;98267.00;;;17.72;41.63
50011;BME280;35899;50.352;19.390;2023-06-04T07:13:30;98267.59;;;17.82;41.50
50011;BME280;35899;50.352;19.390;2023-06-04T07:15:57;98264.48;;;17.91;40.98
50011;BME280;35899;50.352;19.390;2023-06-04T07:18:31;98262.18;;;17.99;41.06
50011;BME280;35899;50.352;19.390;2023-06-04T07:21:00;98262.54;;;18.10;41.04
50011;BME280;35899;50.352;19.390;2023-06-04T07:23:27;98264.17;;;18.20;40.82
50011;BME280;35899;50.352;19.390;2023-06-04T07:25:53;98261.42;;;18.29;40.97
50011;BME280;35899;50.352;19.390;2023-06-04T07:28:23;98262.77;;;18.42;40.49
50011;BME280;35899;50.352;19.390;2023-06-04T07:30:50;98264.56;;;18.47;39.97
50011;BME280;35899;50.352;19.390;2023-06-04T07:33:17;98265.88;;;18.55;39.53
50011;BME280;35899;50.352;19.390;2023-06-04T07:35:43;98267.05;;;18.61;39.57
50011;BME280;35899;50.352;19.390;2023-06-04T07:38:10;98268.88;;;18.71;40.02
50011;BME280;35899;50.352;19.390;2023-06-04T07:40:39;98265.52;;;18.84;40.07
50011;BME280;35899;50.352;19.390;2023-06-04T07:43:06;98265.45;;;18.97;39.56
50011;BME280;35899;50.352;19.390;2023-06-04T07:45:33;98264.20;;;19.01;38.76
50011;BME280;35899;50.352;19.390;2023-06-04T07:48:02;98263.73;;;19.06;38.65
50011;BME280;35899;50.352;19.390;2023-06-04T07:50:29;98264.85;;;19.10;38.29
50011;BME280;35899;50.352;19.390;2023-06-04T07:52:58;98268.31;;;19.16;38.48
50011;BME280;35899;50.352;19.390;2023-06-04T07:55:27;98263.02;;;19.25;38.43
50011;BME280;35899;50.352;19.390;2023-06-04T07:57:55;98263.21;;;19.37;38.76
50011;BME280;35899;50.352;19.390;2023-06-04T08:00:21;98266.36;;;19.49;38.34
50011;BME280;35899;50.352;19.390;2023-06-04T08:02:48;98268.36;;;19.57;37.88
50011;BME280;35899;50.352;19.390;2023-06-04T08:05:15;98265.98;;;19.60;37.09
50011;BME280;35899;50.352;19.390;2023-06-04T08:07:41;98270.13;;;19.61;36.89
50011;BME280;35899;50.352;19.390;2023-06-04T08:10:08;98268.95;;;19.69;37.34
50011;BME280;35899;50.352;19.390;2023-06-04T08:12:35;98269.84;;;19.81;37.14
50011;BME280;35899;50.352;19.390;2023-06-04T08:15:02;98269.70;;;19.92;36.96
50011;BME280;35899;50.352;19.390;2023-06-04T08:17:29;98271.79;;;20.04;36.43
50011;BME280;35899;50.352;19.390;2023-06-04T08:19:55;98267.58;;;20.16;36.18
50011;BME280;35899;50.352;19.390;2023-06-04T08:22:22;98267.77;;;20.26;36.09
50011;BME280;35899;50.352;19.390;2023-06-04T08:24:49;98268.76;;;20.37;35.95
50011;BME280;35899;50.352;19.390;2023-06-04T08:27:16;98265.45;;;20.48;35.99
50011;BME280;35899;50.352;19.390;2023-06-04T08:29:42;98269.23;;;20.59;36.22
50011;BME280;35899;50.352;19.390;2023-06-04T08:32:09;98272.89;;;20.65;35.57
50011;BME280;35899;50.352;19.390;2023-06-04T08:34:35;98270.90;;;20.62;34.62
50011;BME280;35899;50.352;19.390;2023-06-04T08:37:02;98264.54;;;20.62;34.79
50011;BME280;35899;50.352;19.390;2023-06-04T08:39:29;98270.55;;;20.75;35.51
50011;BME280;35899;50.352;19.390;2023-06-04T08:41:56;98272.30;;;20.85;34.96
50011;BME280;35899;50.352;19.390;2023-06-04T08:44:25;98276.29;;;20.97;35.42
50011;BME280;35899;50.352;19.390;2023-06-04T08:46:53;98278.73;;;21.07;34.65
50011;BME280;35899;50.352;19.390;2023-06-04T08:49:22;98281.04;;;21.17;34.46
50011;BME280;35899;50.352;19.390;2023-06-04T08:51:51;98280.66;;;21.25;34.30
50011;BME280;35899;50.352;19.390;2023-06-04T08:54:17;98282.52;;;21.37;34.66
50011;BME280;35899;50.352;19.390;2023-06-04T08:56:44;98282.86;;;21.49;34.32
50011;BME280;35899;50.352;19.390;2023-06-04T08:59:11;98280.69;;;21.61;33.81
50011;BME280;35899;50.352;19.390;2023-06-04T09:01:37;98282.38;;;21.71;33.69
50011;BME280;35899;50.352;19.390;2023-06-04T09:04:05;98288.10;;;21.86;34.33
50011;BME280;35899;50.352;19.390;2023-06-04T09:06:33;98290.02;;;22.00;33.57
50011;BME280;35899;50.352;19.390;2023-06-04T09:09:02;98290.58;;;22.08;33.31
50011;BME280;35899;50.352;19.390;2023-06-04T09:11:39;98287.17;;;22.01;31.59
50011;BME280;35899;50.352;19.390;2023-06-04T09:14:07;98287.77;;;22.02;32.30
50011;BME280;35899;50.352;19.390;2023-06-04T09:16:47;98283.27;;;22.20;32.52
50011;BME280;35899;50.352;19.390;2023-06-04T09:19:15;98280.13;;;22.34;32.24
50011;BME280;35899;50.352;19.390;2023-06-04T09:21:48;98282.52;;;22.48;32.33
50011;BME280;35899;50.352;19.390;2023-06-04T09:24:15;98283.56;;;22.62;32.52
50011;BME280;35899;50.352;19.390;2023-06-04T09:26:42;98282.52;;;22.75;32.39
50011;BME280;35899;50.352;19.390;2023-06-04T09:29:09;98278.77;;;22.95;32.32
50011;BME280;35899;50.352;19.390;2023-06-04T09:31:35;98279.07;;;23.16;32.15
50011;BME280;35899;50.352;19.390;2023-06-04T09:34:02;98277.53;;;23.27;32.01
50011;BME280;35899;50.352;19.390;2023-06-04T09:36:30;98279.07;;;23.40;31.81
50011;BME280;35899;50.352;19.390;2023-06-04T09:38:57;98279.31;;;23.51;31.36
50011;BME280;35899;50.352;19.390;2023-06-04T09:41:27;98281.50;;;23.61;31.45
50011;BME280;35899;50.352;19.390;2023-06-04T09:44:00;98278.88;;;23.73;31.84
50011;BME280;35899;50.352;19.390;2023-06-04T09:46:27;98280.54;;;23.81;31.25
50011;BME280;35899;50.352;19.390;2023-06-04T09:49:03;98279.36;;;23.85;31.17
50011;BME280;35899;50.352;19.390;2023-06-04T09:51:31;98273.98;;;23.89;30.90
50011;BME280;35899;50.352;19.390;2023-06-04T09:53:59;98273.48;;;23.92;31.28
50011;BME280;35899;50.352;19.390;2023-06-04T09:56:25;98270.48;;;24.02;30.97
50011;BME280;35899;50.352;19.390;2023-06-04T09:58:57;98267.08;;;24.18;31.33
50011;BME280;35899;50.352;19.390;2023-06-04T10:01:25;98263.42;;;24.45;31.27
50011;BME280;35899;50.352;19.390;2023-06-04T10:03:52;98259.36;;;24.79;30.55
50011;BME280;35899;50.352;19.390;2023-06-04T10:06:20;98266.02;;;25.09;30.04
50011;BME280;35899;50.352;19.390;2023-06-04T10:08:48;98262.08;;;25.42;29.91
50011;BME280;35899;50.352;19.390;2023-06-04T10:11:17;98259.41;;;25.78;29.64
50011;BME280;35899;50.352;19.390;2023-06-04T10:14:03;98258.88;;;26.13;28.85
50011;BME280;35899;50.352;19.390;2023-06-04T10:16:30;98254.84;;;26.48;28.45
50011;BME280;35899;50.352;19.390;2023-06-04T10:19:01;98256.19;;;26.75;28.27
50011;BME280;35899;50.352;19.390;2023-06-04T10:21:28;98257.45;;;26.98;27.71
50011;BME280;35899;50.352;19.390;2023-06-04T10:23:56;98260.11;;;27.24;27.55
50011;BME280;35899;50.352;19.390;2023-06-04T10:26:23;98258.30;;;27.61;27.34
50011;BME280;35899;50.352;19.390;2023-06-04T10:28:51;98256.98;;;27.94;26.38
50011;BME280;35899;50.352;19.390;2023-06-04T10:31:17;98258.46;;;28.25;26.23
50011;BME280;35899;50.352;19.390;2023-06-04T10:33:45;98250.27;;;28.49;25.74
50011;BME280;35899;50.352;19.390;2023-06-04T10:36:18;98249.47;;;28.78;25.19
50011;BME280;35899;50.352;19.390;2023-06-04T10:38:49;98251.69;;;29.05;25.10
50011;BME280;35899;50.352;19.390;2023-06-04T10:41:16;98245.90;;;29.41;24.99
50011;BME280;35899;50.352;19.390;2023-06-04T10:43:46;98246.05;;;29.78;24.54
50011;BME280;35899;50.352;19.390;2023-06-04T10:46:13;98249.45;;;30.06;24.00
50011;BME280;35899;50.352;19.390;2023-06-04T10:48:47;98248.52;;;30.35;24.41
50011;BME280;35899;50.352;19.390;2023-06-04T10:51:14;98252.55;;;30.59;23.23
50011;BME280;35899;50.352;19.390;2023-06-04T10:53:41;98249.38;;;30.83;22.96
50011;BME280;35899;50.352;19.390;2023-06-04T10:56:07;98255.16;;;31.08;22.16
50011;BME280;35899;50.352;19.390;2023-06-04T10:58:34;98254.70;;;31.33;21.96
50011;BME280;35899;50.352;19.390;2023-06-04T11:01:00;98256.69;;;31.59;21.53
50011;BME280;35899;50.352;19.390;2023-06-04T11:03:36;98255.38;;;31.94;21.26
50011;BME280;35899;50.352;19.390;2023-06-04T11:06:14;98254.45;;;32.50;21.00
50011;BME280;35899;50.352;19.390;2023-06-04T11:08:41;98253.59;;;33.01;21.09
50011;BME280;35899;50.352;19.390;2023-06-04T11:11:11;98249.70;;;33.51;20.29
50011;BME280;35899;50.352;19.390;2023-06-04T11:13:37;98246.70;;;33.85;20.27
50011;BME280;35899;50.352;19.390;2023-06-04T11:16:13;98250.33;;;34.32;20.12
50011;BME280;35899;50.352;19.390;2023-06-04T11:18:56;98249.98;;;34.76;19.11
50011;BME280;35899;50.352;19.390;2023-06-04T11:21:45;98249.85;;;35.19;18.47
50011;BME280;35899;50.352;19.390;2023-06-04T11:24:12;98246.91;;;35.43;17.86
50011;BME280;35899;50.352;19.390;2023-06-04T11:26:39;98245.90;;;35.76;17.74
50011;BME280;35899;50.352;19.390;2023-06-04T11:30:00;98249.17;;;36.32;17.63
50011;BME280;35899;50.352;19.390;2023-06-04T11:32:48;98246.83;;;36.59;17.41
50011;BME280;35899;50.352;19.390;2023-06-04T11:35:19;98251.56;;;36.86;17.65
50011;BME280;35899;50.352;19.390;2023-06-04T11:38:13;98250.48;;;37.31;17.41
50011;BME280;35899;50.352;19.390;2023-06-04T11:40:39;98248.42;;;37.60;17.10
50011;BME280;35899;50.352;19.390;2023-06-04T11:43:10;98250.15;;;37.90;16.54
50011;BME280;35899;50.352;19.390;2023-06-04T11:45:56;98244.98;;;38.03;15.98
50011;BME280;35899;50.352;19.390;2023-06-04T11:57:18;98243.27;;;39.03;15.82
50011;BME280;35899;50.352;19.390;2023-06-04T12:15:21;98245.63;;;41.12;14.30
50011;BME280;35899;50.352;19.390;2023-06-04T12:22:49;98243.17;;;41.91;13.79
50011;BME280;35899;50.352;19.390;2023-06-04T13:35:43;98232.85;;;46.40;10.69
50011;BME280;35899;50.352;19.390;2023-06-04T13:38:10;98228.67;;;46.86;10.30
50011;BME280;35899;50.352;19.390;2023-06-04T13:40:36;98231.39;;;46.85;10.25
50011;BME280;35899;50.352;19.390;2023-06-04T13:43:04;98225.01;;;46.67;10.38
50011;BME280;35899;50.352;19.390;2023-06-04T13:45:31;98226.48;;;46.46;10.02
50011;BME280;35899;50.352;19.390;2023-06-04T13:47:57;98225.31;;;46.36;9.93
50011;BME280;35899;50.352;19.390;2023-06-04T13:50:24;98226.24;;;46.40;10.09
50011;BME280;35899;50.352;19.390;2023-06-04T13:52:50;98226.44;;;46.44;10.09
50011;BME280;35899;50.352;19.390;2023-06-04T13:55:17;98222.99;;;46.59;10.21
50011;BME280;35899;50.352;19.390;2023-06-04T13:57:44;98223.59;;;46.92;10.26
50011;BME280;35899;50.352;19.390;2023-06-04T14:00:10;98221.30;;;47.06;9.92
50011;BME280;35899;50.352;19.390;2023-06-04T15:41:34;98186.98;;;46.18;10.18
50011;BME280;35899;50.352;19.390;2023-06-04T15:44:19;98185.68;;;46.05;10.12
50011;BME280;35899;50.352;19.390;2023-06-04T15:47:23;98186.25;;;45.66;10.20
50011;BME280;35899;50.352;19.390;2023-06-04T15:50:06;98184.16;;;45.68;10.34
50011;BME280;35899;50.352;19.390;2023-06-04T15:53:07;98189.33;;;45.80;10.35
50011;BME280;35899;50.352;19.390;2023-06-04T15:55:33;98188.51;;;45.67;10.45
50011;BME280;35899;50.352;19.390;2023-06-04T15:58:02;98190.22;;;45.59;10.52
50011;BME280;35899;50.352;19.390;2023-06-04T16:00:31;98188.96;;;45.69;10.59
50011;BME280;35899;50.352;19.390;2023-06-04T16:02:58;98187.77;;;45.65;10.68
50011;BME280;35899;50.352;19.390;2023-06-04T16:05:37;98188.96;;;45.45;10.48
50011;BME280;35899;50.352;19.390;2023-06-04T16:08:03;98193.19;;;45.24;10.51
50011;BME280;35899;50.352;19.390;2023-06-04T16:10:31;98191.63;;;44.80;10.34
50011;BME280;35899;50.352;19.390;2023-06-04T16:13:00;98188.54;;;44.41;10.66
50011;BME280;35899;50.352;19.390;2023-06-04T16:15:26;98188.19;;;44.45;10.86
50011;BME280;35899;50.352;19.390;2023-06-04T16:17:53;98189.33;;;44.36;10.74
50011;BME280;35899;50.352;19.390;2023-06-04T16:20:20;98190.15;;;44.17;10.77
50011;BME280;35899;50.352;19.390;2023-06-04T16:22:47;98191.98;;;44.52;10.83
50011;BME280;35899;50.352;19.390;2023-06-04T16:25:14;98196.24;;;44.56;10.83
50011;BME280;35899;50.352;19.390;2023-06-04T16:27:40;98194.70;;;44.66;10.92